Time;durP1;ratioP1;P1;durP2;ratioP2;P2;SDS_P1;SDS_P2;PMS_P1;PMS_P2;Temp;Humidity;BMP_temperature;BMP_pressure;BME280_temperature;BME280_humidity;BME280_pressure;Samples;Min_cycle;Max_cycle;Signal;HPM_P1;HPM_P2
2022/05/09 00:01:21;;;;;;;3.75;2.85;;;;;;;;;;7392933;19;20014;-77
2022/05/09 00:03:47;;;;;;;4.05;3.05;;;;;;;;;;7393952;19;20010;-77
2022/05/09 00:06:13;;;;;;;3.92;3.50;;;;;;;;;;7392068;19;20003;-77
2022/05/09 00:08:41;;;;;;;4.22;3.00;;;;;;;;;;7391134;19;20026;-77
2022/05/09 00:11:07;;;;;;;3.92;3.08;;;;;;;;;;7391634;19;20015;-77
2022/05/09 00:13:32;;;;;;;4.43;3.33;;;;;;;;;;7392891;19;20027;-77
2022/05/09 00:15:57;;;;;;;6.10;3.28;;;;;;;;;;7393230;19;20022;-77
2022/05/09 00:18:22;;;;;;;4.75;3.17;;;;;;;;;;7391629;19;20344;-76
2022/05/09 00:20:48;;;;;;;5.45;3.40;;;;;;;;;;7392275;19;20074;-77
2022/05/09 00:23:13;;;;;;;5.00;3.78;;;;;;;;;;7392354;19;20010;-77
2022/05/09 00:25:39;;;;;;;4.85;3.70;;;;;;;;;;7394023;19;20014;-77
2022/05/09 00:28:04;;;;;;;3.13;2.65;;;;;;;;;;7393232;19;20067;-77
2022/05/09 00:30:30;;;;;;;5.32;3.22;;;;;;;;;;7392673;19;20466;-77
2022/05/09 00:32:55;;;;;;;3.40;2.70;;;;;;;;;;7393272;19;20002;-77
2022/05/09 00:35:20;;;;;;;3.58;2.90;;;;;;;;;;7391621;19;20008;-77
2022/05/09 00:37:46;;;;;;;8.07;3.40;;;;;;;;;;7391752;19;20066;-76
2022/05/09 00:40:13;;;;;;;3.47;2.55;;;;;;;;;;7393181;19;19994;-79
2022/05/09 00:42:53;;;;;;;4.50;3.20;;;;;;;;;;7390644;19;20513;-77
2022/05/09 00:45:21;;;;;;;5.18;3.50;;;;;;;;;;7393284;19;20026;-77
2022/05/09 00:47:47;;;;;;;4.32;3.08;;;;;;;;;;7388259;19;20007;-77
2022/05/09 00:50:26;;;;;;;4.15;3.20;;;;;;;;;;7392007;19;19995;-77
2022/05/09 00:52:58;;;;;;;4.43;3.22;;;;;;;;;;7393791;19;20015;-78
2022/05/09 00:55:36;;;;;;;4.90;3.00;;;;;;;;;;7392734;19;20150;-78
2022/05/09 00:58:15;;;;;;;4.32;3.60;;;;;;;;;;7392171;19;20078;-77
2022/05/09 01:00:44;;;;;;;6.20;2.90;;;;;;;;;;7395153;19;20010;-77
2022/05/09 01:03:27;;;;;;;4.13;3.28;;;;;;;;;;7389819;19;20469;-77
2022/05/09 01:05:52;;;;;;;2.72;2.33;;;;;;;;;;7393017;19;20146;-77
2022/05/09 01:08:19;;;;;;;3.50;2.90;;;;;;;;;;7389985;19;20112;-77
2022/05/09 01:10:45;;;;;;;3.67;2.92;;;;;;;;;;7392671;19;20038;-76
2022/05/09 01:13:13;;;;;;;4.22;3.45;;;;;;;;;;7391340;19;20448;-77
2022/05/09 01:15:40;;;;;;;4.65;3.20;;;;;;;;;;7391047;19;20018;-76
2022/05/09 01:18:09;;;;;;;5.43;3.88;;;;;;;;;;7390864;19;20014;-77
2022/05/09 01:20:34;;;;;;;5.72;3.65;;;;;;;;;;7387784;19;20003;-76
2022/05/09 01:23:00;;;;;;;5.75;3.58;;;;;;;;;;7389991;19;20010;-77
2022/05/09 01:25:27;;;;;;;5.97;3.53;;;;;;;;;;7390251;19;20346;-76
2022/05/09 01:27:53;;;;;;;8.18;4.20;;;;;;;;;;7391587;19;20006;-77
2022/05/09 01:30:26;;;;;;;5.20;3.08;;;;;;;;;;7392125;19;20022;-77
2022/05/09 01:33:05;;;;;;;5.68;3.55;;;;;;;;;;7390156;19;20463;-76
2022/05/09 01:35:45;;;;;;;4.72;3.20;;;;;;;;;;7390906;19;20006;-77
2022/05/09 01:38:28;;;;;;;6.35;3.60;;;;;;;;;;7389051;19;20006;-77
2022/05/09 01:40:53;;;;;;;4.57;3.40;;;;;;;;;;7392130;19;20019;-77
2022/05/09 01:43:49;;;;;;;6.45;3.95;;;;;;;;;;7388145;19;20002;-77
2022/05/09 01:46:17;;;;;;;7.88;3.47;;;;;;;;;;7390429;19;20042;-77
2022/05/09 01:51:27;;;;;;;5.30;2.97;;;;;;;;;;7391371;19;20006;-77
2022/05/09 01:53:52;;;;;;;3.80;2.45;;;;;;;;;;7389495;19;20006;-77
2022/05/09 01:56:24;;;;;;;3.80;3.17;;;;;;;;;;7391944;19;20014;-76
2022/05/09 01:58:50;;;;;;;3.95;3.40;;;;;;;;;;7388300;19;20010;-76
2022/05/09 02:01:17;;;;;;;5.53;3.40;;;;;;;;;;7388953;19;20027;-76
2022/05/09 02:03:45;;;;;;;2.78;2.20;;;;;;;;;;7385893;19;20173;-77
2022/05/09 02:06:11;;;;;;;4.18;3.20;;;;;;;;;;7390972;19;20021;-76
2022/05/09 02:08:37;;;;;;;4.50;2.95;;;;;;;;;;7390257;19;20003;-77
2022/05/09 02:11:03;;;;;;;4.45;2.63;;;;;;;;;;7389096;19;20013;-77
2022/05/09 02:13:28;;;;;;;3.05;2.47;;;;;;;;;;7389607;19;20010;-76
2022/05/09 02:15:53;;;;;;;3.30;2.72;;;;;;;;;;7392367;19;20542;-76
2022/05/09 02:18:19;;;;;;;4.78;3.05;;;;;;;;;;7385637;19;19994;-77
2022/05/09 02:20:46;;;;;;;4.97;3.35;;;;;;;;;;7388719;19;20492;-76
2022/05/09 02:23:13;;;;;;;6.68;4.05;;;;;;;;;;7389705;19;20006;-77
2022/05/09 02:25:39;;;;;;;4.18;3.00;;;;;;;;;;7389552;19;20100;-77
2022/05/09 02:28:09;;;;;;;5.65;3.95;;;;;;;;;;7389466;19;20044;-76
2022/05/09 02:30:35;;;;;;;4.45;3.80;;;;;;;;;;7390589;19;20009;-77
2022/05/09 02:33:01;;;;;;;4.45;3.05;;;;;;;;;;7387862;19;20010;-77
2022/05/09 02:35:26;;;;;;;5.65;3.90;;;;;;;;;;7389356;19;20006;-77
2022/05/09 02:37:52;;;;;;;4.35;3.17;;;;;;;;;;7388958;19;20078;-77
2022/05/09 02:40:17;;;;;;;3.35;2.72;;;;;;;;;;7387583;19;20015;-77
2022/05/09 02:42:43;;;;;;;4.03;3.08;;;;;;;;;;7387611;19;20037;-76
2022/05/09 02:45:10;;;;;;;5.28;3.25;;;;;;;;;;7387389;19;20014;-76
2022/05/09 02:47:35;;;;;;;5.47;4.10;;;;;;;;;;7384393;19;19994;-76
2022/05/09 02:50:00;;;;;;;5.80;4.30;;;;;;;;;;7387701;19;20328;-77
2022/05/09 02:52:26;;;;;;;5.35;4.07;;;;;;;;;;7390184;19;20006;-76
2022/05/09 02:54:51;;;;;;;4.35;3.53;;;;;;;;;;7389382;19;20010;-76
2022/05/09 02:57:17;;;;;;;5.00;3.97;;;;;;;;;;7388632;19;20003;-77
2022/05/09 02:59:42;;;;;;;6.15;3.80;;;;;;;;;;7388857;19;20014;-78
2022/05/09 03:02:08;;;;;;;4.55;3.38;;;;;;;;;;7387654;19;20499;-80
2022/05/09 03:04:40;;;;;;;4.82;3.70;;;;;;;;;;7387634;19;20030;-76
2022/05/09 03:07:07;;;;;;;4.63;3.42;;;;;;;;;;7389315;19;20007;-77
2022/05/09 03:09:32;;;;;;;7.18;3.78;;;;;;;;;;7389881;19;20034;-76
2022/05/09 03:11:58;;;;;;;5.95;4.03;;;;;;;;;;7394785;19;20010;-76
2022/05/09 03:14:23;;;;;;;5.68;3.80;;;;;;;;;;7394829;19;20007;-77
2022/05/09 03:16:49;;;;;;;4.32;3.15;;;;;;;;;;7396610;19;20010;-77
2022/05/09 03:19:14;;;;;;;5.43;3.88;;;;;;;;;;7393689;19;20021;-76
2022/05/09 03:21:39;;;;;;;4.43;3.85;;;;;;;;;;7397890;19;20361;-77
2022/05/09 03:24:05;;;;;;;7.28;4.40;;;;;;;;;;7395488;19;20822;-76
2022/05/09 03:26:31;;;;;;;8.05;4.10;;;;;;;;;;7395989;19;20029;-78
2022/05/09 03:28:57;;;;;;;9.75;5.82;;;;;;;;;;7398427;19;20072;-77
2022/05/09 03:31:22;;;;;;;6.97;4.40;;;;;;;;;;7395223;19;20471;-76
2022/05/09 03:33:47;;;;;;;13.05;5.15;;;;;;;;;;7393602;19;20368;-79
2022/05/09 03:36:13;;;;;;;8.98;5.70;;;;;;;;;;7396032;19;20003;-78
2022/05/09 03:38:38;;;;;;;9.60;5.78;;;;;;;;;;7390070;19;20022;-77
2022/05/09 03:41:04;;;;;;;10.30;6.00;;;;;;;;;;7386384;19;20023;-77
2022/05/09 03:43:29;;;;;;;10.68;5.20;;;;;;;;;;7392580;19;20010;-77
2022/05/09 03:45:55;;;;;;;9.85;6.15;;;;;;;;;;7393757;19;20337;-77
2022/05/09 03:48:20;;;;;;;11.05;6.22;;;;;;;;;;7389929;19;20490;-76
2022/05/09 03:50:46;;;;;;;9.10;4.43;;;;;;;;;;7393243;19;20006;-76
2022/05/09 03:53:12;;;;;;;4.43;3.70;;;;;;;;;;7395898;19;20003;-77
2022/05/09 03:55:37;;;;;;;10.77;4.28;;;;;;;;;;7396812;19;20010;-77
2022/05/09 03:58:03;;;;;;;5.78;4.15;;;;;;;;;;7394373;19;20030;-76
2022/05/09 04:00:32;;;;;;;6.63;4.57;;;;;;;;;;7394673;19;20007;-78
2022/05/09 04:02:57;;;;;;;7.72;4.65;;;;;;;;;;7385872;19;20078;-77
2022/05/09 04:05:23;;;;;;;4.90;3.42;;;;;;;;;;7386073;19;20378;-77
2022/05/09 04:07:51;;;;;;;4.18;3.63;;;;;;;;;;7387102;19;20014;-77
2022/05/09 04:10:20;;;;;;;5.38;3.47;;;;;;;;;;7384878;19;20178;-76
2022/05/09 04:12:45;;;;;;;6.00;3.83;;;;;;;;;;7387362;19;20108;-76
2022/05/09 04:17:55;;;;;;;6.55;3.90;;;;;;;;;;7393076;19;20082;-77
2022/05/09 04:20:22;;;;;;;4.68;3.90;;;;;;;;;;7393899;19;20114;-77
2022/05/09 04:22:48;;;;;;;8.90;3.85;;;;;;;;;;7389710;19;20007;-76
2022/05/09 04:25:15;;;;;;;5.68;4.18;;;;;;;;;;7392557;19;20079;-77
2022/05/09 04:27:40;;;;;;;7.45;3.47;;;;;;;;;;7390458;19;20006;-79
2022/05/09 04:30:08;;;;;;;5.28;3.92;;;;;;;;;;7394128;19;20126;-77
2022/05/09 04:32:34;;;;;;;4.75;3.40;;;;;;;;;;7386517;19;20007;-77
2022/05/09 04:34:59;;;;;;;9.15;4.30;;;;;;;;;;7392859;19;20010;-76
2022/05/09 04:37:25;;;;;;;5.32;3.55;;;;;;;;;;7393728;19;20017;-77
2022/05/09 04:39:50;;;;;;;6.07;4.07;;;;;;;;;;7393891;19;20018;-77
2022/05/09 04:42:15;;;;;;;5.57;4.13;;;;;;;;;;7382351;19;20009;-77
2022/05/09 04:44:40;;;;;;;9.40;5.10;;;;;;;;;;7393837;19;20018;-79
2022/05/09 04:47:07;;;;;;;7.10;4.00;;;;;;;;;;7387786;19;20007;-77
2022/05/09 04:49:33;;;;;;;7.78;4.47;;;;;;;;;;7386008;19;20019;-77
2022/05/09 04:51:58;;;;;;;6.18;4.00;;;;;;;;;;7385282;19;20338;-76
2022/05/09 04:54:23;;;;;;;4.00;3.22;;;;;;;;;;7379605;19;20379;-78
2022/05/09 04:56:48;;;;;;;6.55;3.22;;;;;;;;;;7383063;19;20018;-77
2022/05/09 04:59:14;;;;;;;5.05;3.10;;;;;;;;;;7384606;19;20090;-77
2022/05/09 05:01:39;;;;;;;5.70;3.40;;;;;;;;;;7386444;19;20002;-77
2022/05/09 05:04:06;;;;;;;4.38;3.05;;;;;;;;;;7387287;19;20028;-78
2022/05/09 05:06:31;;;;;;;5.28;3.42;;;;;;;;;;7386645;19;20006;-78
2022/05/09 05:08:56;;;;;;;5.10;3.70;;;;;;;;;;7395512;19;20431;-78
2022/05/09 05:11:22;;;;;;;6.93;3.17;;;;;;;;;;7386856;19;20010;-77
2022/05/09 05:13:47;;;;;;;8.88;3.30;;;;;;;;;;7382728;19;20488;-78
2022/05/09 05:16:12;;;;;;;8.07;3.67;;;;;;;;;;7383570;19;20025;-78
2022/05/09 05:18:37;;;;;;;7.00;3.30;;;;;;;;;;7384554;19;20167;-77
2022/05/09 05:21:11;;;;;;;4.85;2.95;;;;;;;;;;7390077;19;20011;-79
2022/05/09 05:23:38;;;;;;;4.80;3.10;;;;;;;;;;7395456;19;20074;-78
2022/05/09 05:26:03;;;;;;;5.82;3.45;;;;;;;;;;7390664;19;20022;-79
2022/05/09 05:28:29;;;;;;;7.57;2.90;;;;;;;;;;7383952;19;20011;-80
2022/05/09 05:30:54;;;;;;;4.95;3.33;;;;;;;;;;7394802;19;20002;-79
2022/05/09 05:33:20;;;;;;;9.65;3.97;;;;;;;;;;7391980;19;20018;-78
2022/05/09 05:35:45;;;;;;;6.10;3.28;;;;;;;;;;7389246;19;20011;-78
2022/05/09 05:38:11;;;;;;;8.82;3.83;;;;;;;;;;7384238;19;20098;-78
2022/05/09 05:40:36;;;;;;;6.28;3.78;;;;;;;;;;7388271;19;20041;-78
2022/05/09 05:43:01;;;;;;;6.25;4.10;;;;;;;;;;7389122;19;20480;-78
2022/05/09 05:45:28;;;;;;;5.30;4.25;;;;;;;;;;7392855;19;20014;-78
2022/05/09 05:47:53;;;;;;;5.53;4.30;;;;;;;;;;7389875;19;20021;-78
2022/05/09 05:50:21;;;;;;;3.88;2.67;;;;;;;;;;7394796;19;20081;-78
2022/05/09 05:52:47;;;;;;;6.70;4.63;;;;;;;;;;7393998;19;20028;-78
2022/05/09 05:55:13;;;;;;;6.60;4.15;;;;;;;;;;7394295;19;20014;-78
2022/05/09 05:57:41;;;;;;;6.65;4.25;;;;;;;;;;7395758;19;20343;-79
2022/05/09 06:00:19;;;;;;;10.00;3.97;;;;;;;;;;7395174;19;20020;-78
2022/05/09 06:02:45;;;;;;;5.53;3.65;;;;;;;;;;7389550;19;20344;-78
2022/05/09 06:05:13;;;;;;;4.05;3.40;;;;;;;;;;7396037;19;20014;-78
2022/05/09 06:07:40;;;;;;;4.05;3.15;;;;;;;;;;7386485;19;20010;-79
2022/05/09 06:10:07;;;;;;;6.88;3.53;;;;;;;;;;7384571;19;20463;-78
2022/05/09 06:12:32;;;;;;;7.25;4.28;;;;;;;;;;7386034;19;20010;-78
2022/05/09 06:17:42;;;;;;;5.82;3.80;;;;;;;;;;7392517;19;20560;-78
2022/05/09 06:20:10;;;;;;;6.50;4.10;;;;;;;;;;7395652;19;20077;-78
2022/05/09 06:22:38;;;;;;;4.53;4.03;;;;;;;;;;7394078;19;20503;-79
2022/05/09 06:25:05;;;;;;;6.90;4.32;;;;;;;;;;7394939;19;20017;-78
2022/05/09 06:27:32;;;;;;;5.82;4.45;;;;;;;;;;7394734;19;20443;-78
2022/05/09 06:29:59;;;;;;;5.32;3.83;;;;;;;;;;7393669;19;20011;-78
2022/05/09 06:32:25;;;;;;;4.78;4.10;;;;;;;;;;7394180;19;20002;-78
2022/05/09 06:34:51;;;;;;;7.38;4.45;;;;;;;;;;7395966;19;20026;-79
2022/05/09 06:37:17;;;;;;;8.05;4.60;;;;;;;;;;7395817;19;20015;-78
2022/05/09 06:39:42;;;;;;;4.80;4.25;;;;;;;;;;7392321;19;20459;-78
2022/05/09 06:42:08;;;;;;;6.10;4.15;;;;;;;;;;7394322;19;20396;-78
2022/05/09 06:44:35;;;;;;;4.55;4.10;;;;;;;;;;7393466;19;20003;-78
2022/05/09 06:47:01;;;;;;;6.82;4.38;;;;;;;;;;7390752;19;20018;-78
2022/05/09 06:49:26;;;;;;;4.70;3.95;;;;;;;;;;7394828;19;20003;-78
2022/05/09 06:51:51;;;;;;;5.20;4.00;;;;;;;;;;7393872;19;20060;-78
2022/05/09 06:54:20;;;;;;;6.47;4.03;;;;;;;;;;7393532;19;20005;-78
2022/05/09 06:56:45;;;;;;;5.70;4.90;;;;;;;;;;7393111;19;20039;-78
2022/05/09 06:59:11;;;;;;;12.73;4.95;;;;;;;;;;7394980;19;20003;-78
2022/05/09 07:01:37;;;;;;;7.25;4.47;;;;;;;;;;7393700;19;20010;-78
2022/05/09 07:04:03;;;;;;;9.50;5.90;;;;;;;;;;7391931;19;20052;-78
2022/05/09 07:06:28;;;;;;;6.45;5.30;;;;;;;;;;7394832;19;20011;-78
2022/05/09 07:08:53;;;;;;;7.80;5.75;;;;;;;;;;7389929;19;20079;-78
2022/05/09 07:11:19;;;;;;;7.10;5.13;;;;;;;;;;7392061;19;20066;-79
2022/05/09 07:13:44;;;;;;;6.85;4.97;;;;;;;;;;7394716;19;20123;-78
2022/05/09 07:16:11;;;;;;;6.75;5.60;;;;;;;;;;7390761;19;20010;-78
2022/05/09 07:18:38;;;;;;;10.90;5.97;;;;;;;;;;7390150;19;20011;-79
2022/05/09 07:21:03;;;;;;;8.15;5.80;;;;;;;;;;7393376;19;20019;-79
2022/05/09 07:23:29;;;;;;;6.60;5.65;;;;;;;;;;7393549;19;20006;-78
2022/05/09 07:25:55;;;;;;;8.07;5.40;;;;;;;;;;7392805;19;20014;-78
2022/05/09 07:28:21;;;;;;;10.10;6.00;;;;;;;;;;7393725;19;20010;-78
2022/05/09 07:30:47;;;;;;;7.13;5.75;;;;;;;;;;7393773;19;20014;-79
2022/05/09 07:33:15;;;;;;;8.55;5.47;;;;;;;;;;7396592;19;20013;-78
2022/05/09 07:35:42;;;;;;;7.07;5.75;;;;;;;;;;7394796;19;20397;-78
2022/05/09 07:38:07;;;;;;;7.53;5.97;;;;;;;;;;7393883;19;20014;-78
2022/05/09 07:40:32;;;;;;;9.27;6.40;;;;;;;;;;7395944;19;20010;-78
2022/05/09 07:42:58;;;;;;;10.65;5.80;;;;;;;;;;7413172;19;20013;-77
2022/05/09 07:45:24;;;;;;;8.00;5.43;;;;;;;;;;7422775;19;20035;-77
2022/05/09 07:47:49;;;;;;;7.45;5.90;;;;;;;;;;7421747;19;20011;-78
2022/05/09 07:50:16;;;;;;;8.20;5.82;;;;;;;;;;7421373;19;20003;-78
2022/05/09 07:52:42;;;;;;;5.85;5.07;;;;;;;;;;7413794;19;20033;-79
2022/05/09 07:55:09;;;;;;;6.90;5.30;;;;;;;;;;7392377;19;20011;-77
2022/05/09 07:57:35;;;;;;;8.75;5.72;;;;;;;;;;7392397;19;20053;-78
2022/05/09 08:00:00;;;;;;;9.00;5.25;;;;;;;;;;7399201;19;20014;-79
2022/05/09 08:02:26;;;;;;;9.60;5.20;;;;;;;;;;7397314;19;20018;-79
2022/05/09 08:04:51;;;;;;;6.28;5.22;;;;;;;;;;7399683;19;20006;-79
2022/05/09 08:07:17;;;;;;;8.23;5.32;;;;;;;;;;7397807;19;20030;-78
2022/05/09 08:09:42;;;;;;;6.05;5.10;;;;;;;;;;7402073;19;20127;-79
2022/05/09 08:12:08;;;;;;;6.60;5.15;;;;;;;;;;7394657;19;20023;-79
2022/05/09 08:14:34;;;;;;;6.10;4.70;;;;;;;;;;7397705;19;20035;-79
2022/05/09 08:17:02;;;;;;;6.60;5.13;;;;;;;;;;7398689;19;20025;-78
2022/05/09 08:19:29;;;;;;;7.32;5.57;;;;;;;;;;7396111;19;20006;-79
2022/05/09 08:21:54;;;;;;;5.38;4.88;;;;;;;;;;7397685;19;20038;-79
2022/05/09 08:24:20;;;;;;;6.45;5.28;;;;;;;;;;7396614;19;20042;-78
2022/05/09 08:26:45;;;;;;;5.63;5.03;;;;;;;;;;7398140;19;20022;-78
2022/05/09 08:29:11;;;;;;;10.20;5.20;;;;;;;;;;7398726;19;20027;-78
2022/05/09 08:31:36;;;;;;;6.97;4.78;;;;;;;;;;7398053;19;20017;-78
2022/05/09 08:34:02;;;;;;;7.75;4.60;;;;;;;;;;7398055;19;20066;-78
2022/05/09 08:39:13;;;;;;;9.80;5.03;;;;;;;;;;7397184;19;20027;-78
2022/05/09 08:42:04;;;;;;;5.18;4.60;;;;;;;;;;7396206;19;20014;-78
2022/05/09 08:45:04;;;;;;;6.68;4.50;;;;;;;;;;7399348;19;20014;-78
2022/05/09 08:47:49;;;;;;;5.00;4.45;;;;;;;;;;7394962;19;20018;-78
2022/05/09 08:50:17;;;;;;;7.90;4.63;;;;;;;;;;7395462;19;20601;-80
2022/05/09 08:52:51;;;;;;;6.68;4.80;;;;;;;;;;7393359;19;20266;-78
2022/05/09 08:55:45;;;;;;;7.53;4.72;;;;;;;;;;7392936;19;20007;-78
2022/05/09 08:58:28;;;;;;;6.47;4.57;;;;;;;;;;7385395;19;20138;-78
2022/05/09 09:00:54;;;;;;;4.68;4.00;;;;;;;;;;7394285;19;20030;-77
2022/05/09 09:03:23;;;;;;;6.90;4.95;;;;;;;;;;7394077;19;20007;-78
2022/05/09 09:05:51;;;;;;;6.10;4.75;;;;;;;;;;7391693;19;20011;-78
2022/05/09 09:08:32;;;;;;;7.55;4.97;;;;;;;;;;7383685;19;20058;-78
2022/05/09 09:11:29;;;;;;;7.32;4.70;;;;;;;;;;7392271;19;20103;-79
2022/05/09 09:14:03;;;;;;;;;;;;;;;;;;7397476;19;20010;-80
2022/05/09 09:16:45;;;;;;;6.88;4.13;;;;;;;;;;7393318;19;19911;-79
2022/05/09 09:19:38;;;;;;;6.18;4.75;;;;;;;;;;7387351;19;20070;-78
2022/05/09 09:22:14;;;;;;;5.97;4.40;;;;;;;;;;7386352;19;20093;-78
2022/05/09 09:25:02;;;;;;;9.05;4.72;;;;;;;;;;7388010;19;20006;-78
2022/05/09 09:27:47;;;;;;;6.20;4.40;;;;;;;;;;7386633;19;20014;-78
2022/05/09 09:30:15;;;;;;;;;;;;;;;;;;7384735;19;20014;-78
2022/05/09 09:32:50;;;;;;;6.88;3.80;;;;;;;;;;7386167;19;19967;-79
2022/05/09 09:35:40;;;;;;;6.18;3.90;;;;;;;;;;7391807;19;20011;-79
2022/05/09 09:38:29;;;;;;;4.82;4.13;;;;;;;;;;7393769;19;20039;-78
2022/05/09 09:40:55;;;;;;;6.35;4.53;;;;;;;;;;7395736;19;20491;-78
2022/05/09 09:43:20;;;;;;;5.32;3.97;;;;;;;;;;7394859;19;20010;-78
2022/05/09 09:45:52;;;;;;;7.05;3.95;;;;;;;;;;7394345;19;20082;-78
2022/05/09 09:48:22;;;;;;;5.70;3.63;;;;;;;;;;7386267;19;20052;-78
2022/05/09 09:51:00;;;;;;;5.53;3.40;;;;;;;;;;7388336;19;20010;-78
2022/05/09 09:53:36;;;;;;;6.57;3.50;;;;;;;;;;7394375;19;20006;-78
2022/05/09 09:56:11;;;;;;;7.82;3.85;;;;;;;;;;7393879;19;20035;-78
2022/05/09 09:58:40;;;;;;;;;;;;;;;;;;7392009;19;20134;-79
2022/05/09 10:01:11;;;;;;;4.55;3.40;;;;;;;;;;7385733;19;19921;-79
2022/05/09 10:03:40;;;;;;;4.28;3.60;;;;;;;;;;7386613;19;20073;-79
2022/05/09 10:06:20;;;;;;;4.45;3.13;;;;;;;;;;7394176;19;20027;-78
2022/05/09 10:08:46;;;;;;;3.92;3.30;;;;;;;;;;7388786;19;20006;-78
2022/05/09 10:11:24;;;;;;;5.82;4.45;;;;;;;;;;7387719;19;20139;-79
2022/05/09 10:13:53;;;;;;;6.00;3.70;;;;;;;;;;7390733;19;20018;-78
2022/05/09 10:16:30;;;;;;;6.13;3.28;;;;;;;;;;7395862;19;20352;-78
2022/05/09 10:18:56;;;;;;;5.40;3.58;;;;;;;;;;7394786;19;20017;-78
2022/05/09 10:27:15;;;;;;;6.05;3.75;;;;;;;;;;7394739;19;20039;-79
2022/05/09 10:29:44;;;;;;;4.55;3.63;;;;;;;;;;7395164;19;20015;-78
2022/05/09 10:32:11;;;;;;;5.22;3.03;;;;;;;;;;7390988;19;20027;-79
2022/05/09 10:34:50;;;;;;;3.67;3.10;;;;;;;;;;7391491;19;20464;-78
2022/05/09 10:37:24;;;;;;;4.57;3.58;;;;;;;;;;7392788;19;20844;-78
2022/05/09 10:40:00;;;;;;;4.00;3.60;;;;;;;;;;7400654;19;20081;-79
2022/05/09 10:42:38;;;;;;;9.20;3.70;;;;;;;;;;7392842;19;20016;-78
2022/05/09 10:45:10;;;;;;;7.07;3.05;;;;;;;;;;7393951;19;20013;-78
2022/05/09 10:48:11;;;;;;;3.72;3.35;;;;;;;;;;7393549;19;20038;-78
2022/05/09 10:50:54;;;;;;;4.70;3.38;;;;;;;;;;7387890;19;20007;-78
2022/05/09 10:53:31;;;;;;;4.85;2.90;;;;;;;;;;7393385;19;20017;-78
2022/05/09 10:56:08;;;;;;;4.13;2.60;;;;;;;;;;7391449;19;20010;-79
2022/05/09 10:58:43;;;;;;;4.80;3.58;;;;;;;;;;7393547;19;19999;-78
2022/05/09 11:01:13;;;;;;;3.67;2.70;;;;;;;;;;7393643;19;20487;-79
2022/05/09 11:03:41;;;;;;;4.40;3.20;;;;;;;;;;7393074;19;20070;-78
2022/05/09 11:06:33;;;;;;;3.20;2.90;;;;;;;;;;7392554;19;20006;-78
2022/05/09 11:09:10;;;;;;;3.47;3.10;;;;;;;;;;7393676;19;20460;-78
2022/05/09 11:11:44;;;;;;;3.40;3.10;;;;;;;;;;7394011;19;20016;-78
2022/05/09 11:14:45;;;;;;;3.05;2.70;;;;;;;;;;7393843;19;20031;-78
2022/05/09 11:17:17;;;;;;;3.85;2.85;;;;;;;;;;7394097;19;20123;-78
2022/05/09 11:20:04;;;;;;;3.55;2.72;;;;;;;;;;7392822;19;20328;-78
2022/05/09 11:22:35;;;;;;;4.13;2.63;;;;;;;;;;7390456;19;20504;-78
2022/05/09 11:25:27;;;;;;;3.30;2.42;;;;;;;;;;7394256;19;20018;-78
2022/05/09 11:28:14;;;;;;;3.10;2.75;;;;;;;;;;7389938;19;20014;-78
2022/05/09 11:30:41;;;;;;;3.95;2.90;;;;;;;;;;7392012;19;20042;-78
2022/05/09 11:33:30;;;;;;;3.25;2.95;;;;;;;;;;7399059;19;20023;-78
2022/05/09 11:36:16;;;;;;;4.50;2.88;;;;;;;;;;7399601;19;20034;-79
2022/05/09 11:39:25;;;;;;;3.33;2.55;;;;;;;;;;7397311;19;20021;-78
2022/05/09 11:45:07;;;;;;;3.47;2.70;;;;;;;;;;7402705;19;20116;-79
2022/05/09 11:47:44;;;;;;;4.85;3.20;;;;;;;;;;7399712;19;20077;-78
2022/05/09 11:50:20;;;;;;;4.88;2.78;;;;;;;;;;7400745;19;20339;-79
2022/05/09 11:52:46;;;;;;;3.88;2.70;;;;;;;;;;7397393;19;20041;-78
2022/05/09 11:55:13;;;;;;;2.85;2.30;;;;;;;;;;7401788;19;20022;-78
2022/05/09 11:57:41;;;;;;;4.25;2.33;;;;;;;;;;7397267;19;20651;-79
2022/05/09 12:00:11;;;;;;;4.95;2.20;;;;;;;;;;7401201;19;20010;-79
2022/05/09 12:02:45;;;;;;;5.03;2.20;;;;;;;;;;7398550;19;19998;-78
2022/05/09 12:05:25;;;;;;;3.17;2.47;;;;;;;;;;7400273;19;20411;-78
2022/05/09 12:08:13;;;;;;;3.85;2.40;;;;;;;;;;7398864;19;20021;-79
2022/05/09 12:10:40;;;;;;;4.68;2.55;;;;;;;;;;7397400;19;20081;-78
2022/05/09 12:13:10;;;;;;;2.92;2.30;;;;;;;;;;7399252;19;20553;-78
2022/05/09 12:15:36;;;;;;;2.70;2.17;;;;;;;;;;7399631;19;20023;-78
2022/05/09 12:18:07;;;;;;;3.60;2.30;;;;;;;;;;7397203;19;20018;-78
2022/05/09 12:20:38;;;;;;;2.90;2.50;;;;;;;;;;7398455;19;20272;-79
2022/05/09 12:23:05;;;;;;;2.38;2.17;;;;;;;;;;7400340;19;20014;-79
2022/05/09 12:25:36;;;;;;;3.95;2.40;;;;;;;;;;7400886;19;20107;-78
2022/05/09 12:28:15;;;;;;;4.47;2.20;;;;;;;;;;7399186;19;20030;-78
2022/05/09 12:31:04;;;;;;;2.40;2.20;;;;;;;;;;7398204;19;20411;-79
2022/05/09 12:33:48;;;;;;;2.00;1.90;;;;;;;;;;7398052;19;20021;-78
2022/05/09 12:36:22;;;;;;;2.97;1.98;;;;;;;;;;7396670;19;20539;-79
2022/05/09 13:12:21;;;;;;;6.05;2.30;;;;;;;;;;7392857;19;19983;-78
2022/05/09 13:14:53;;;;;;;2.10;1.70;;;;;;;;;;7396873;19;20057;-79
2022/05/09 13:17:38;;;;;;;3.88;2.10;;;;;;;;;;7398554;19;20066;-80
2022/05/09 13:20:11;;;;;;;2.47;1.75;;;;;;;;;;7398709;19;20048;-80
2022/05/09 13:23:02;;;;;;;2.65;1.92;;;;;;;;;;7393629;19;20220;-80
2022/05/09 13:25:32;;;;;;;2.10;1.90;;;;;;;;;;7393804;19;20026;-79
2022/05/09 13:28:01;;;;;;;5.20;1.92;;;;;;;;;;7394108;19;20006;-79
2022/05/09 13:30:32;;;;;;;1.85;1.75;;;;;;;;;;7397597;19;20014;-79
2022/05/09 13:32:57;;;;;;;2.58;2.13;;;;;;;;;;7393899;19;20123;-79
2022/05/09 13:35:35;;;;;;;3.75;2.00;;;;;;;;;;7395879;19;20033;-77
2022/05/09 13:38:31;;;;;;;2.58;1.88;;;;;;;;;;7393814;19;20010;-79
2022/05/09 13:41:03;;;;;;;3.95;1.88;;;;;;;;;;7391295;19;20006;-79
2022/05/09 13:43:31;;;;;;;3.03;1.90;;;;;;;;;;7394360;19;20021;-79
2022/05/09 13:46:02;;;;;;;2.97;1.80;;;;;;;;;;7390860;19;20344;-79
2022/05/09 13:48:28;;;;;;;2.50;1.70;;;;;;;;;;7391303;19;20010;-79
2022/05/09 13:50:53;;;;;;;2.28;1.88;;;;;;;;;;7394977;19;20017;-79
2022/05/09 13:53:32;;;;;;;2.17;1.70;;;;;;;;;;7394349;19;20018;-79
2022/05/09 13:56:00;;;;;;;1.77;1.67;;;;;;;;;;7391269;19;20003;-79
2022/05/09 14:11:34;;;;;;;2.92;1.85;;;;;;;;;;7386517;19;20006;-79
2022/05/09 14:13:59;;;;;;;1.70;1.60;;;;;;;;;;7391503;19;20409;-79
2022/05/09 14:16:52;;;;;;;4.15;2.22;;;;;;;;;;7392703;19;20079;-78
2022/05/09 14:19:28;;;;;;;2.10;1.90;;;;;;;;;;7400851;19;20021;-79
2022/05/09 14:22:01;;;;;;;2.25;1.70;;;;;;;;;;7404751;19;20039;-79
2022/05/09 14:24:32;;;;;;;1.83;1.73;;;;;;;;;;7398932;19;20130;-78
2022/05/09 14:29:49;;;;;;;2.60;1.67;;;;;;;;;;7425674;19;20005;-79
2022/05/09 14:46:02;;;;;;;2.10;1.77;;;;;;;;;;7392321;19;20132;-79
2022/05/09 14:48:32;;;;;;;2.00;1.80;;;;;;;;;;7397130;19;20030;-79
2022/05/09 14:51:02;;;;;;;2.85;1.70;;;;;;;;;;7396947;19;20687;-79
2022/05/09 14:53:52;;;;;;;2.55;1.80;;;;;;;;;;7393856;19;20015;-80
2022/05/09 14:59:21;;;;;;;2.50;1.70;;;;;;;;;;7397826;19;20018;-79
2022/05/09 15:01:52;;;;;;;1.60;1.50;;;;;;;;;;7390627;19;20037;-79
2022/05/09 15:04:19;;;;;;;3.50;1.88;;;;;;;;;;7389937;19;20451;-78
2022/05/09 15:06:44;;;;;;;1.85;1.60;;;;;;;;;;7394815;19;20079;-79
2022/05/09 15:09:09;;;;;;;1.95;1.83;;;;;;;;;;7401783;19;20007;-78
2022/05/09 15:11:40;;;;;;;2.38;1.60;;;;;;;;;;7402371;19;20044;-78
2022/05/09 15:14:05;;;;;;;2.28;1.70;;;;;;;;;;7399932;19;20010;-78
2022/05/09 15:16:34;;;;;;;2.08;1.70;;;;;;;;;;7404558;19;20104;-78
2022/05/09 15:19:03;;;;;;;3.72;1.85;;;;;;;;;;7397722;19;20029;-78
2022/05/09 15:22:20;;;;;;;2.08;1.90;;;;;;;;;;7398416;19;20021;-79
2022/05/09 15:43:17;;;;;;;2.47;1.90;;;;;;;;;;7396617;19;20425;-78
2022/05/09 15:45:45;;;;;;;3.05;2.10;;;;;;;;;;7392914;19;20127;-78
2022/05/09 15:48:12;;;;;;;3.10;2.00;;;;;;;;;;7392929;19;20121;-78
2022/05/09 15:50:37;;;;;;;3.90;1.58;;;;;;;;;;7396687;19;20096;-78
2022/05/09 15:53:03;;;;;;;2.28;2.08;;;;;;;;;;7399525;19;20007;-78
2022/05/09 15:55:28;;;;;;;1.95;1.70;;;;;;;;;;7399600;19;20444;-78
2022/05/09 15:57:56;;;;;;;1.92;1.80;;;;;;;;;;7396802;19;20027;-78
2022/05/09 16:00:21;;;;;;;3.40;2.60;;;;;;;;;;7399578;19;20011;-78
2022/05/09 16:02:48;;;;;;;2.20;1.70;;;;;;;;;;7395249;19;20014;-78
2022/05/09 16:05:14;;;;;;;2.38;2.03;;;;;;;;;;7390600;19;20082;-77
2022/05/09 16:13:07;;;;;;;3.83;2.10;;;;;;;;;;7397634;19;20018;-78
2022/05/09 16:15:32;;;;;;;3.10;1.80;;;;;;;;;;7399116;19;20303;-77
2022/05/09 16:18:04;;;;;;;3.45;1.88;;;;;;;;;;7395492;19;20010;-78
2022/05/09 16:20:31;;;;;;;2.80;1.95;;;;;;;;;;7393521;19;20384;-78
2022/05/09 16:22:56;;;;;;;2.95;2.03;;;;;;;;;;7395013;19;20022;-79
2022/05/09 16:25:22;;;;;;;4.97;2.00;;;;;;;;;;7395390;19;20029;-78
2022/05/09 16:27:48;;;;;;;3.13;1.90;;;;;;;;;;7397433;19;20010;-79
2022/05/09 16:30:33;;;;;;;2.42;1.95;;;;;;;;;;7399221;19;20122;-79
2022/05/09 16:32:59;;;;;;;2.33;1.75;;;;;;;;;;7405281;19;20031;-78
2022/05/09 16:35:25;;;;;;;2.03;1.80;;;;;;;;;;7394560;19;19999;-78
2022/05/09 16:37:52;;;;;;;2.20;1.70;;;;;;;;;;7391573;19;20006;-78
2022/05/09 16:40:18;;;;;;;2.88;1.70;;;;;;;;;;7399759;19;20014;-78
2022/05/09 16:42:46;;;;;;;2.20;1.90;;;;;;;;;;7395679;19;20073;-78
2022/05/09 16:45:15;;;;;;;4.32;2.33;;;;;;;;;;7399450;19;20035;-79
2022/05/09 16:47:43;;;;;;;7.90;4.65;;;;;;;;;;7396745;19;20073;-78
2022/05/09 16:50:11;;;;;;;2.92;2.10;;;;;;;;;;7399902;19;20014;-79